Time;durP1;ratioP1;P1;durP2;ratioP2;P2;SDS_P1;SDS_P2;PMS_P1;PMS_P2;Temp;Humidity;BMP_temperature;BMP_pressure;BME280_temperature;BME280_humidity;BME280_pressure;Samples;Min_cycle;Max_cycle;Signal;HPM_P1;HPM_P2
2023/09/06 00:00:55;;;;;;;5.63;4.50;;;23.60;88.00;;;;;;4947899;28;20218;-74
2023/09/06 00:03:21;;;;;;;6.03;4.90;;;23.60;88.00;;;;;;4950956;28;20218;-74
2023/09/06 00:05:46;;;;;;;5.03;4.30;;;23.60;88.10;;;;;;4946156;28;20473;-73
2023/09/06 00:08:14;;;;;;;5.77;4.63;;;23.50;88.10;;;;;;4947744;28;20438;-73
2023/09/06 00:10:43;;;;;;;6.17;5.10;;;23.50;88.30;;;;;;4946839;28;20599;-73
2023/09/06 00:13:11;;;;;;;4.70;4.30;;;23.40;88.30;;;;;;4953616;28;21050;-73
2023/09/06 00:15:37;;;;;;;5.10;4.60;;;23.40;88.50;;;;;;4952242;28;20417;-73
2023/09/06 00:18:07;;;;;;;6.90;4.53;;;23.40;88.50;;;;;;4948370;28;20419;-73
2023/09/06 00:20:35;;;;;;;5.50;4.60;;;23.40;88.60;;;;;;4952079;28;20217;-73
2023/09/06 00:23:04;;;;;;;5.90;5.33;;;23.40;88.70;;;;;;4948082;28;20470;-73
2023/09/06 00:25:31;;;;;;;7.07;6.00;;;23.30;88.70;;;;;;4951564;28;20427;-74
2023/09/06 00:27:59;;;;;;;5.13;4.70;;;23.30;89.00;;;;;;4942577;28;20460;-74
2023/09/06 00:30:24;;;;;;;5.03;4.40;;;23.30;89.00;;;;;;4964682;28;20441;-74
2023/09/06 00:32:53;;;;;;;8.30;4.90;;;23.20;89.10;;;;;;4962759;28;20486;-74
2023/09/06 00:35:25;;;;;;;5.60;4.63;;;23.20;89.20;;;;;;4944594;28;20214;-74
2023/09/06 00:37:54;;;;;;;5.33;4.60;;;23.20;89.20;;;;;;4946271;28;20461;-74
2023/09/06 00:40:23;;;;;;;6.03;4.40;;;23.10;89.20;;;;;;4946772;28;20508;-74
2023/09/06 00:42:51;;;;;;;6.63;4.80;;;23.10;89.40;;;;;;4966127;28;20554;-73
2023/09/06 00:45:21;;;;;;;7.93;5.20;;;23.10;89.50;;;;;;4942985;28;20426;-73
2023/09/06 00:47:50;;;;;;;5.13;4.63;;;23.10;89.40;;;;;;4944466;28;20465;-74
2023/09/06 00:50:17;;;;;;;6.20;5.20;;;23.10;89.40;;;;;;4949547;28;20453;-73
2023/09/06 00:52:43;;;;;;;5.20;4.70;;;23.00;89.40;;;;;;4943543;28;20470;-74
2023/09/06 00:55:10;;;;;;;6.63;5.37;;;23.00;89.50;;;;;;4944755;28;20776;-74
2023/09/06 00:57:36;;;;;;;5.40;4.57;;;23.00;89.60;;;;;;4948473;28;20415;-74
2023/09/06 01:00:05;;;;;;;5.40;4.90;;;23.00;89.70;;;;;;4950174;28;20959;-73
2023/09/06 01:02:31;;;;;;;6.50;5.43;;;22.90;89.50;;;;;;4949963;28;20530;-73
2023/09/06 01:04:57;;;;;;;7.23;5.73;;;22.90;89.70;;;;;;4948858;28;20446;-73
2023/09/06 01:07:25;;;;;;;5.60;4.87;;;22.90;89.70;;;;;;4949089;28;20183;-74
2023/09/06 01:09:52;;;;;;;5.73;4.97;;;22.90;89.80;;;;;;4941675;28;20685;-73
2023/09/06 01:12:17;;;;;;;5.43;4.90;;;22.80;89.70;;;;;;4945428;28;20479;-73
2023/09/06 01:14:43;;;;;;;5.77;4.50;;;22.80;89.60;;;;;;4945337;28;20439;-73
2023/09/06 01:17:10;;;;;;;6.67;4.80;;;22.80;89.70;;;;;;4948784;28;20176;-73
2023/09/06 01:19:43;;;;;;;5.17;4.67;;;22.80;89.60;;;;;;4949124;28;20202;-73
2023/09/06 01:22:17;;;;;;;9.10;4.73;;;22.70;89.70;;;;;;4949504;28;20980;-74
2023/09/06 01:24:44;;;;;;;5.80;4.73;;;22.70;89.80;;;;;;4946788;28;20936;-73
2023/09/06 01:27:12;;;;;;;6.33;5.20;;;22.70;89.90;;;;;;4952984;28;20917;-73
2023/09/06 01:29:37;;;;;;;9.00;4.90;;;22.70;90.00;;;;;;4951042;28;20434;-73
2023/09/06 01:32:05;;;;;;;5.60;4.83;;;22.60;90.10;;;;;;4947341;28;20586;-73
2023/09/06 01:34:31;;;;;;;5.50;5.00;;;22.60;90.10;;;;;;4946530;28;20252;-73
2023/09/06 01:36:56;;;;;;;5.70;5.10;;;22.60;90.10;;;;;;4944950;28;20440;-73
2023/09/06 01:39:22;;;;;;;12.83;5.70;;;22.50;90.20;;;;;;4955789;28;20415;-73
2023/09/06 01:41:48;;;;;;;6.67;5.50;;;22.50;90.30;;;;;;4943047;28;20291;-73
2023/09/06 01:44:14;;;;;;;6.27;5.07;;;22.40;90.30;;;;;;4948767;28;20555;-74
2023/09/06 01:46:40;;;;;;;9.27;5.00;;;22.40;90.40;;;;;;4950412;28;20186;-73
2023/09/06 01:49:05;;;;;;;6.90;5.60;;;22.40;90.50;;;;;;4952022;28;20453;-73
2023/09/06 01:51:31;;;;;;;8.83;5.60;;;22.40;90.50;;;;;;4953313;28;20214;-73
2023/09/06 01:53:57;;;;;;;7.00;5.50;;;22.40;90.60;;;;;;4946521;28;20636;-73
2023/09/06 01:56:22;;;;;;;7.43;5.33;;;22.40;90.70;;;;;;4966106;28;20250;-73
2023/09/06 01:58:48;;;;;;;6.87;5.53;;;22.40;90.70;;;;;;4951202;28;20203;-73
2023/09/06 02:01:14;;;;;;;7.27;5.10;;;22.40;90.70;;;;;;4949634;28;20213;-73
2023/09/06 02:03:39;;;;;;;6.20;5.07;;;22.30;90.60;;;;;;4947581;28;20195;-74
2023/09/06 02:06:05;;;;;;;8.07;4.87;;;22.30;90.70;;;;;;4948635;28;20263;-74
2023/09/06 02:08:32;;;;;;;5.70;5.10;;;22.30;90.70;;;;;;4949099;28;20183;-74
2023/09/06 02:10:57;;;;;;;6.77;5.23;;;22.30;90.60;;;;;;4948270;28;20652;-74
2023/09/06 02:13:23;;;;;;;6.00;5.40;;;22.30;90.60;;;;;;4947769;28;20513;-74
2023/09/06 02:15:48;;;;;;;7.20;5.70;;;22.30;90.60;;;;;;4951300;28;20187;-73
2023/09/06 02:18:17;;;;;;;7.73;5.63;;;22.20;90.70;;;;;;4947289;28;20252;-74
2023/09/06 02:20:44;;;;;;;6.83;5.50;;;22.20;90.70;;;;;;4945976;28;20215;-74
2023/09/06 02:23:10;;;;;;;5.87;5.27;;;22.20;90.70;;;;;;4949937;28;20831;-73
2023/09/06 02:25:35;;;;;;;5.30;4.80;;;22.20;90.70;;;;;;4942748;28;20455;-74
2023/09/06 02:28:03;;;;;;;5.80;4.87;;;22.20;90.70;;;;;;4945151;28;20198;-73
2023/09/06 02:30:28;;;;;;;6.13;5.57;;;22.20;90.70;;;;;;4944214;28;20202;-73
2023/09/06 02:32:55;;;;;;;6.00;5.40;;;22.10;90.70;;;;;;4942040;28;20475;-73
2023/09/06 02:35:20;;;;;;;7.90;6.20;;;22.10;90.80;;;;;;4950937;28;20187;-73
2023/09/06 02:37:46;;;;;;;6.80;5.87;;;22.10;90.80;;;;;;4945194;28;20898;-73
2023/09/06 02:40:13;;;;;;;5.70;5.20;;;22.10;90.80;;;;;;4947875;28;20179;-73
2023/09/06 02:42:40;;;;;;;5.70;5.10;;;22.00;90.80;;;;;;4946650;28;20293;-73
2023/09/06 02:45:09;;;;;;;6.80;5.63;;;22.00;90.80;;;;;;4945416;28;20515;-73
2023/09/06 02:47:47;;;;;;;6.00;5.20;;;22.00;90.80;;;;;;4943695;28;20534;-74
2023/09/06 02:50:14;;;;;;;6.53;5.10;;;22.00;90.80;;;;;;4941595;28;20427;-74
2023/09/06 02:52:44;;;;;;;6.03;5.43;;;21.90;90.90;;;;;;4940338;28;20502;-74
2023/09/06 02:55:10;;;;;;;6.57;5.57;;;21.90;90.90;;;;;;4945727;28;20435;-74
2023/09/06 02:57:36;;;;;;;6.93;5.37;;;21.90;90.90;;;;;;4946342;28;20521;-74
2023/09/06 03:00:08;;;;;;;7.10;5.20;;;21.90;91.00;;;;;;4945986;28;20431;-73
2023/09/06 03:02:33;;;;;;;5.33;4.83;;;21.90;90.90;;;;;;4944895;28;20443;-73
2023/09/06 03:05:03;;;;;;;6.77;4.63;;;21.90;90.90;;;;;;4944397;28;20552;-73
2023/09/06 03:07:33;;;;;;;6.13;5.17;;;21.90;91.00;;;;;;4951198;28;20210;-73
2023/09/06 03:09:58;;;;;;;5.63;5.03;;;21.80;91.40;;;;;;4944510;28;20935;-73
2023/09/06 03:12:24;;;;;;;5.97;5.37;;;21.80;91.10;;;;;;4946346;28;20461;-74
2023/09/06 03:14:50;;;;;;;6.50;5.43;;;21.80;91.10;;;;;;4949912;28;20277;-74
2023/09/06 03:17:18;;;;;;;7.80;5.30;;;21.70;91.10;;;;;;4946750;28;20277;-74
2023/09/06 03:19:46;;;;;;;6.13;5.53;;;21.70;91.20;;;;;;4943474;28;20489;-73
2023/09/06 03:22:13;;;;;;;7.60;5.30;;;21.70;91.20;;;;;;4947252;28;20446;-74
2023/09/06 03:24:40;;;;;;;6.80;5.67;;;21.60;91.10;;;;;;4949189;28;20446;-74
2023/09/06 03:27:07;;;;;;;8.07;5.80;;;21.60;91.10;;;;;;4948172;28;20518;-74
2023/09/06 03:29:36;;;;;;;5.97;5.00;;;21.60;91.30;;;;;;4947577;28;20502;-75
2023/09/06 03:32:10;;;;;;;6.83;5.30;;;21.50;91.30;;;;;;4944479;28;20582;-75
2023/09/06 03:34:36;;;;;;;5.73;4.93;;;21.50;91.30;;;;;;4945434;28;20543;-75
2023/09/06 03:37:05;;;;;;;6.23;4.73;;;21.50;91.40;;;;;;4957471;28;20486;-75
2023/09/06 03:39:37;;;;;;;8.00;5.60;;;21.50;91.40;;;;;;4944556;28;20435;-74
2023/09/06 03:42:08;;;;;;;6.10;5.50;;;21.50;91.40;;;;;;4938868;28;20470;-75
2023/09/06 03:44:37;;;;;;;5.33;4.83;;;21.40;91.50;;;;;;4940048;28;20427;-75
2023/09/06 03:47:14;;;;;;;7.53;5.40;;;21.40;91.50;;;;;;4946260;28;20442;-74
2023/09/06 03:49:41;;;;;;;7.90;5.30;;;21.40;91.40;;;;;;4941125;28;20454;-73
2023/09/06 03:52:07;;;;;;;5.80;5.20;;;21.40;91.50;;;;;;4948850;28;20502;-74
2023/09/06 03:54:35;;;;;;;6.87;5.37;;;21.40;91.40;;;;;;4943749;28;20491;-74
2023/09/06 03:57:02;;;;;;;6.20;5.40;;;21.40;91.60;;;;;;4941379;28;20443;-74
2023/09/06 03:59:30;;;;;;;7.20;5.23;;;21.40;91.60;;;;;;4937748;28;20516;-74
2023/09/06 04:01:56;;;;;;;8.17;5.63;;;21.30;91.70;;;;;;4945756;28;20546;-74
2023/09/06 04:04:22;;;;;;;9.33;5.53;;;21.30;91.80;;;;;;4945150;28;20541;-73
2023/09/06 04:06:48;;;;;;;6.87;5.57;;;21.30;91.90;;;;;;4948845;28;20191;-73
2023/09/06 04:09:13;;;;;;;7.13;5.90;;;21.20;92.00;;;;;;4943110;28;20767;-73
2023/09/06 04:11:42;;;;;;;7.87;5.00;;;21.20;92.40;;;;;;4944602;28;20257;-74
2023/09/06 04:14:08;;;;;;;7.33;5.90;;;21.10;92.30;;;;;;4944326;28;20187;-73
2023/09/06 04:16:37;;;;;;;6.73;5.57;;;21.10;92.40;;;;;;4943925;28;20478;-73
2023/09/06 04:19:04;;;;;;;6.27;5.60;;;21.10;92.40;;;;;;4947455;28;20330;-75
2023/09/06 04:21:29;;;;;;;7.87;5.90;;;21.00;92.40;;;;;;4939337;28;20498;-74
2023/09/06 04:23:55;;;;;;;7.93;5.63;;;21.00;92.40;;;;;;4948221;28;20501;-74
2023/09/06 04:26:20;;;;;;;6.30;5.30;;;21.00;92.40;;;;;;4938705;28;20196;-74
2023/09/06 04:28:46;;;;;;;7.23;6.00;;;21.00;92.50;;;;;;4943868;28;20183;-73
2023/09/06 04:31:12;;;;;;;6.33;5.67;;;21.00;92.70;;;;;;4943709;28;20301;-73
2023/09/06 04:33:37;;;;;;;6.63;5.93;;;21.00;92.70;;;;;;4949197;28;20641;-73
2023/09/06 04:36:04;;;;;;;7.57;5.47;;;21.00;92.80;;;;;;4949026;28;20809;-73
2023/09/06 04:38:31;;;;;;;6.57;5.17;;;20.90;92.80;;;;;;4942133;28;20192;-73
2023/09/06 04:40:56;;;;;;;7.33;5.60;;;20.90;92.80;;;;;;4945377;28;20442;-73
2023/09/06 04:43:22;;;;;;;8.00;7.20;;;20.90;92.90;;;;;;4947485;28;20442;-74
2023/09/06 04:45:49;;;;;;;7.87;5.90;;;20.80;93.00;;;;;;4947971;28;20198;-73
2023/09/06 04:48:18;;;;;;;7.67;6.33;;;20.80;93.00;;;;;;4940103;28;20447;-74
2023/09/06 04:50:45;;;;;;;8.87;6.47;;;20.80;93.10;;;;;;4942731;28;20449;-74
2023/09/06 04:53:12;;;;;;;6.57;5.93;;;20.80;93.10;;;;;;4942527;28;20552;-73
2023/09/06 04:55:39;;;;;;;9.03;7.03;;;20.80;93.10;;;;;;4940841;28;20451;-73
2023/09/06 04:58:07;;;;;;;7.10;6.23;;;20.80;93.10;;;;;;4944677;28;20431;-74
2023/09/06 05:00:41;;;;;;;8.73;6.17;;;20.80;93.10;;;;;;4942539;28;20802;-74
2023/09/06 05:03:12;;;;;;;8.87;7.90;;;20.80;93.10;;;;;;4949384;28;20481;-73
2023/09/06 05:05:39;;;;;;;7.50;6.63;;;20.80;93.30;;;;;;4945261;28;20442;-73
2023/09/06 05:08:08;;;;;;;9.03;6.50;;;20.80;93.50;;;;;;4947789;28;20421;-73
2023/09/06 05:10:39;;;;;;;6.70;6.00;;;20.80;93.40;;;;;;4944654;28;20535;-73
2023/09/06 05:13:07;;;;;;;6.50;5.57;;;20.80;93.50;;;;;;4949257;28;20497;-73
2023/09/06 05:15:37;;;;;;;7.20;6.50;;;20.80;93.40;;;;;;4947937;28;20458;-74
2023/09/06 05:18:08;;;;;;;6.30;5.67;;;20.80;93.50;;;;;;4948441;28;20442;-74
2023/09/06 05:20:37;;;;;;;6.67;6.00;;;20.70;93.80;;;;;;4945171;28;20432;-73
2023/09/06 05:23:05;;;;;;;6.13;5.53;;;20.70;93.50;;;;;;4948952;28;20470;-73
2023/09/06 05:25:32;;;;;;;8.03;6.20;;;20.70;93.70;;;;;;4949061;28;20468;-73
2023/09/06 05:28:02;;;;;;;8.30;5.17;;;20.70;93.80;;;;;;4950376;28;20418;-73
2023/09/06 05:30:28;;;;;;;9.60;6.60;;;20.70;93.80;;;;;;4944679;28;20467;-73
2023/09/06 05:32:56;;;;;;;7.87;6.10;;;20.60;93.90;;;;;;4948942;28;20534;-73
2023/09/06 05:35:22;;;;;;;7.93;7.13;;;20.70;93.90;;;;;;4949873;28;20510;-76
2023/09/06 05:37:48;;;;;;;7.67;6.80;;;20.60;93.80;;;;;;4946792;28;20455;-74
2023/09/06 05:40:14;;;;;;;12.30;7.30;;;20.70;94.00;;;;;;4950444;28;20427;-74
2023/09/06 05:42:41;;;;;;;10.83;5.90;;;20.70;93.90;;;;;;4945213;28;20470;-74
2023/09/06 05:45:13;;;;;;;11.70;6.23;;;20.70;93.90;;;;;;4948538;28;20287;-74
2023/09/06 05:47:38;;;;;;;7.60;6.00;;;20.70;94.00;;;;;;4945690;28;20435;-74
2023/09/06 05:50:05;;;;;;;8.60;6.50;;;20.70;94.00;;;;;;4946158;28;20797;-74
2023/09/06 05:52:31;;;;;;;7.93;5.73;;;20.70;94.00;;;;;;4944906;28;20211;-74
2023/09/06 05:54:57;;;;;;;8.33;7.20;;;20.60;94.20;;;;;;4942599;28;20462;-74
2023/09/06 05:57:22;;;;;;;10.50;7.60;;;20.60;94.10;;;;;;4949581;28;20184;-74
2023/09/06 05:59:48;;;;;;;9.10;6.80;;;20.60;94.10;;;;;;4940503;28;20188;-73
2023/09/06 06:02:17;;;;;;;8.90;7.00;;;20.60;94.30;;;;;;4950680;28;20208;-74
2023/09/06 06:04:46;;;;;;;6.80;6.10;;;20.60;94.20;;;;;;4943749;28;20199;-74
2023/09/06 06:07:16;;;;;;;6.77;6.10;;;20.70;94.30;;;;;;4946083;28;20434;-74
2023/09/06 06:09:42;;;;;;;13.40;6.17;;;20.60;94.40;;;;;;4944641;28;20443;-74
2023/09/06 06:12:08;;;;;;;7.37;5.60;;;20.70;94.70;;;;;;4945522;28;20854;-74
2023/09/06 06:14:35;;;;;;;7.23;6.53;;;20.70;94.60;;;;;;4946653;28;20447;-73
2023/09/06 06:17:01;;;;;;;15.60;10.80;;;20.70;94.60;;;;;;4950341;28;20648;-73
2023/09/06 06:19:26;;;;;;;8.20;7.40;;;20.70;94.60;;;;;;4948038;28;20509;-73
2023/09/06 06:21:52;;;;;;;7.50;6.00;;;20.70;94.70;;;;;;4948426;28;20207;-73
2023/09/06 06:24:17;;;;;;;6.67;5.60;;;20.80;94.80;;;;;;4951226;28;20193;-74
2023/09/06 06:26:43;;;;;;;7.53;6.70;;;20.80;94.80;;;;;;4948250;28;20202;-73
2023/09/06 06:29:09;;;;;;;8.60;5.40;;;20.80;94.90;;;;;;4946469;28;20191;-74
2023/09/06 06:31:34;;;;;;;7.70;6.17;;;20.80;94.90;;;;;;4947278;28;20318;-74
2023/09/06 06:34:00;;;;;;;6.67;5.50;;;20.80;94.90;;;;;;4953289;28;20431;-74
2023/09/06 06:36:26;;;;;;;11.50;10.30;;;20.80;94.90;;;;;;4950677;28;20594;-74
2023/09/06 06:38:52;;;;;;;8.40;6.80;;;20.80;94.90;;;;;;4953508;28;20590;-74
2023/09/06 06:41:22;;;;;;;7.90;7.10;;;20.80;95.10;;;;;;4950650;28;20453;-73
2023/09/06 06:43:47;;;;;;;6.97;6.30;;;20.90;95.10;;;;;;4950262;28;20168;-73
2023/09/06 06:46:30;;;;;;;8.43;6.23;;;20.90;95.10;;;;;;4953583;28;20571;-73
2023/09/06 06:48:56;;;;;;;8.87;5.87;;;20.90;95.20;;;;;;4948742;28;20180;-73
2023/09/06 06:51:31;;;;;;;8.07;5.97;;;20.90;95.10;;;;;;4951134;28;20473;-73
2023/09/06 06:53:57;;;;;;;8.00;6.10;;;20.90;95.30;;;;;;4947716;28;20477;-73
2023/09/06 06:56:23;;;;;;;6.87;6.03;;;21.00;95.30;;;;;;4945135;28;20824;-74
2023/09/06 06:58:49;;;;;;;7.60;6.43;;;21.00;95.40;;;;;;4938527;28;20195;-73
2023/09/06 07:01:14;;;;;;;6.47;5.03;;;21.00;95.30;;;;;;4945867;28;20933;-73
2023/09/06 07:03:43;;;;;;;6.30;5.70;;;21.00;95.20;;;;;;4942056;28;20187;-73
2023/09/06 07:06:09;;;;;;;6.70;6.00;;;21.10;95.20;;;;;;4947963;28;20206;-73
2023/09/06 07:08:38;;;;;;;6.43;5.47;;;21.10;95.10;;;;;;4945224;28;20615;-73
2023/09/06 07:11:04;;;;;;;10.50;5.93;;;21.10;95.40;;;;;;4946294;28;20214;-73
2023/09/06 07:13:30;;;;;;;11.90;5.50;;;21.20;95.40;;;;;;4946697;28;21019;-74
2023/09/06 07:15:56;;;;;;;6.80;6.20;;;21.20;95.20;;;;;;4945926;28;20436;-74
2023/09/06 07:18:24;;;;;;;7.33;5.93;;;21.20;95.10;;;;;;4948601;28;20644;-74
2023/09/06 07:20:49;;;;;;;6.53;5.80;;;21.30;95.10;;;;;;4951218;28;20262;-74
2023/09/06 07:23:15;;;;;;;7.93;5.90;;;21.30;95.10;;;;;;4948314;28;20461;-74
2023/09/06 07:25:47;;;;;;;6.07;5.43;;;21.30;95.00;;;;;;4946343;28;20189;-74
2023/09/06 07:28:13;;;;;;;6.90;6.13;;;21.40;95.00;;;;;;4946337;28;20282;-74
2023/09/06 07:30:40;;;;;;;6.70;6.00;;;21.40;95.00;;;;;;4943051;28;20443;-73
2023/09/06 07:33:06;;;;;;;6.67;5.70;;;21.40;95.00;;;;;;4947226;28;20799;-73
2023/09/06 07:35:31;;;;;;;8.20;5.40;;;21.50;95.00;;;;;;4946974;28;20437;-75
2023/09/06 07:37:58;;;;;;;8.10;5.90;;;21.50;95.30;;;;;;4951107;28;20183;-73
2023/09/06 07:40:24;;;;;;;6.73;5.97;;;21.50;95.10;;;;;;4942774;28;20524;-73
2023/09/06 07:42:49;;;;;;;6.80;6.10;;;21.50;95.60;;;;;;4943748;28;20457;-74
2023/09/06 07:45:15;;;;;;;7.20;6.10;;;21.60;95.30;;;;;;4947623;28;20230;-74
2023/09/06 07:47:40;;;;;;;7.50;5.20;;;21.60;95.20;;;;;;4944740;28;20183;-74
2023/09/06 07:50:09;;;;;;;7.27;6.20;;;21.70;95.30;;;;;;4947267;28;20186;-74
2023/09/06 07:52:38;;;;;;;6.80;5.23;;;21.70;95.30;;;;;;4945397;28;20724;-74
2023/09/06 07:55:07;;;;;;;10.03;6.67;;;21.80;95.30;;;;;;4950515;28;20438;-74
2023/09/06 07:57:33;;;;;;;9.60;5.77;;;21.80;95.30;;;;;;4943021;28;20501;-74
2023/09/06 07:59:58;;;;;;;8.50;5.67;;;21.90;95.40;;;;;;4945951;28;20451;-75
2023/09/06 08:02:24;;;;;;;6.10;5.30;;;21.90;95.40;;;;;;4948706;28;20211;-73
2023/09/06 08:04:52;;;;;;;8.97;6.00;;;21.90;95.50;;;;;;4951646;28;20206;-73
2023/09/06 08:07:20;;;;;;;8.67;6.57;;;22.00;95.70;;;;;;4945647;28;20615;-73
2023/09/06 08:09:45;;;;;;;9.67;7.07;;;22.10;95.80;;;;;;4948087;28;20791;-74
2023/09/06 08:12:11;;;;;;;9.37;8.40;;;22.10;95.80;;;;;;4948115;28;20513;-73
2023/09/06 08:14:38;;;;;;;6.50;5.90;;;22.20;95.90;;;;;;4944355;28;20187;-73
2023/09/06 08:17:05;;;;;;;10.77;7.33;;;22.30;95.90;;;;;;4944979;28;20573;-74
2023/09/06 08:19:30;;;;;;;6.80;6.10;;;22.30;95.90;;;;;;4947297;28;20419;-73
2023/09/06 08:21:56;;;;;;;8.63;6.60;;;22.30;96.00;;;;;;4943499;28;20447;-73
2023/09/06 08:24:21;;;;;;;8.27;6.60;;;22.40;96.10;;;;;;4942005;28;20262;-73
2023/09/06 08:26:50;;;;;;;6.20;5.60;;;22.40;96.20;;;;;;4942740;28;20226;-74
2023/09/06 08:29:16;;;;;;;6.23;5.63;;;22.50;96.20;;;;;;4944036;28;20215;-74
2023/09/06 08:31:41;;;;;;;6.73;5.57;;;22.50;96.20;;;;;;4948505;28;20521;-73
2023/09/06 08:34:07;;;;;;;8.97;5.80;;;22.60;96.20;;;;;;4952951;28;20259;-73
2023/09/06 08:36:33;;;;;;;11.63;5.57;;;22.60;96.10;;;;;;4950669;28;20250;-73
2023/09/06 08:38:59;;;;;;;7.63;5.67;;;22.70;96.20;;;;;;4946274;28;20443;-73
2023/09/06 08:41:28;;;;;;;5.77;5.17;;;22.80;96.10;;;;;;4951564;28;20233;-74
2023/09/06 08:43:54;;;;;;;6.80;5.80;;;22.80;96.00;;;;;;4950504;28;20295;-74
2023/09/06 08:46:33;;;;;;;8.70;5.40;;;22.90;96.00;;;;;;4949791;28;20427;-74
2023/09/06 08:49:02;;;;;;;6.07;5.47;;;22.90;96.30;;;;;;4951683;28;21293;-74
2023/09/06 08:51:32;;;;;;;6.80;6.00;;;22.90;96.00;;;;;;4950679;28;20430;-74
2023/09/06 08:53:58;;;;;;;12.77;11.10;;;23.00;96.00;;;;;;4952041;28;20416;-74
2023/09/06 08:56:25;;;;;;;9.33;6.10;;;23.00;95.90;;;;;;4949617;28;20454;-74
2023/09/06 08:58:50;;;;;;;7.60;6.70;;;23.10;96.00;;;;;;4949297;28;20434;-74
2023/09/06 09:01:16;;;;;;;9.63;6.77;;;23.20;95.90;;;;;;4951518;28;20433;-74
2023/09/06 09:03:42;;;;;;;7.63;6.20;;;23.20;95.80;;;;;;4951070;28;20192;-74
2023/09/06 09:06:09;;;;;;;8.10;6.10;;;23.30;95.80;;;;;;4950335;28;20286;-74
2023/09/06 09:08:34;;;;;;;9.73;6.13;;;23.30;95.70;;;;;;4950251;28;20414;-74
2023/09/06 09:11:19;;;;;;;6.60;5.90;;;23.40;95.80;;;;;;4948537;28;20878;-73
2023/09/06 09:13:45;;;;;;;7.30;6.60;;;23.50;95.60;;;;;;4942482;28;20191;-73
2023/09/06 09:16:17;;;;;;;9.00;6.23;;;23.50;95.40;;;;;;4951106;28;20476;-74
2023/09/06 09:18:44;;;;;;;8.60;5.90;;;23.60;95.40;;;;;;4948423;28;20415;-73
2023/09/06 09:21:12;;;;;;;5.90;5.30;;;23.70;95.10;;;;;;4952361;28;20441;-74
2023/09/06 09:23:53;;;;;;;6.93;5.77;;;23.70;94.90;;;;;;4946958;28;20472;-73
2023/09/06 09:26:21;;;;;;;6.27;5.67;;;23.70;94.90;;;;;;4951114;28;20454;-74
2023/09/06 09:28:48;;;;;;;6.60;5.90;;;23.80;95.00;;;;;;4946978;28;20431;-74
2023/09/06 09:31:15;;;;;;;7.93;6.20;;;23.90;95.00;;;;;;4942188;28;20423;-73
2023/09/06 09:33:49;;;;;;;6.40;5.80;;;23.90;94.80;;;;;;4948085;28;20483;-73
2023/09/06 09:36:16;;;;;;;9.43;5.80;;;24.00;94.80;;;;;;4949385;28;20501;-74
2023/09/06 09:38:47;;;;;;;8.40;5.80;;;24.00;94.70;;;;;;4965516;28;20428;-73
2023/09/06 09:41:14;;;;;;;6.73;5.80;;;24.10;94.70;;;;;;4949493;28;20437;-73
2023/09/06 09:43:40;;;;;;;9.40;6.57;;;24.10;94.40;;;;;;4955534;28;20418;-73
2023/09/06 09:46:06;;;;;;;6.37;5.77;;;24.20;94.30;;;;;;4948494;28;20509;-74
2023/09/06 09:48:32;;;;;;;6.03;5.43;;;24.30;94.30;;;;;;4946702;28;20186;-74
2023/09/06 09:51:07;;;;;;;6.27;5.50;;;24.30;94.20;;;;;;4951356;28;20422;-74
2023/09/06 09:53:34;;;;;;;11.07;5.80;;;24.40;94.20;;;;;;4953282;28;20201;-75
2023/09/06 09:56:08;;;;;;;6.90;6.20;;;24.50;94.40;;;;;;4946812;28;20434;-75
2023/09/06 09:58:35;;;;;;;6.60;6.00;;;24.50;94.40;;;;;;4950472;28;20421;-73
2023/09/06 10:01:01;;;;;;;6.40;5.80;;;24.60;94.30;;;;;;4948654;28;20444;-73
2023/09/06 10:03:27;;;;;;;7.70;5.97;;;24.70;94.00;;;;;;4950432;28;21027;-73
2023/09/06 10:05:54;;;;;;;6.70;5.83;;;24.70;93.80;;;;;;4948711;28;20484;-73
2023/09/06 10:08:21;;;;;;;7.07;5.50;;;24.80;93.80;;;;;;4950227;28;20419;-73
2023/09/06 10:10:49;;;;;;;6.63;5.93;;;24.80;93.70;;;;;;4951226;28;20530;-73
2023/09/06 10:13:15;;;;;;;6.60;6.00;;;24.90;93.60;;;;;;4950116;28;20470;-73
2023/09/06 10:15:43;;;;;;;7.87;7.07;;;24.90;93.80;;;;;;4950663;28;20785;-75
2023/09/06 10:18:08;;;;;;;10.53;6.27;;;25.00;93.70;;;;;;4947394;28;20247;-75
2023/09/06 10:20:37;;;;;;;7.87;6.97;;;25.10;93.60;;;;;;4947610;28;20434;-75
2023/09/06 10:23:05;;;;;;;9.93;7.40;;;25.10;93.50;;;;;;4949880;28;20221;-75
2023/09/06 10:25:32;;;;;;;8.00;7.30;;;25.20;93.70;;;;;;4947965;28;20435;-75
2023/09/06 10:28:01;;;;;;;8.10;6.40;;;25.30;93.50;;;;;;4946481;28;20437;-73
2023/09/06 10:30:34;;;;;;;7.37;6.67;;;25.30;93.50;;;;;;4950117;28;20447;-73
2023/09/06 10:33:01;;;;;;;7.50;6.67;;;25.40;93.40;;;;;;4946583;28;20485;-74
2023/09/06 10:35:30;;;;;;;8.30;7.50;;;25.50;93.30;;;;;;4947222;28;20411;-74
2023/09/06 10:38:14;;;;;;;6.23;5.63;;;25.50;93.10;;;;;;4942347;28;20424;-74
2023/09/06 10:40:49;;;;;;;6.60;6.00;;;25.60;93.10;;;;;;4943838;28;20473;-75
2023/09/06 10:43:19;;;;;;;6.10;5.50;;;25.60;92.90;;;;;;4942700;28;20458;-75
2023/09/06 10:45:58;;;;;;;8.37;6.13;;;25.70;92.80;;;;;;4959552;28;20776;-73
2023/09/06 10:48:25;;;;;;;6.63;5.90;;;25.70;92.70;;;;;;4947965;28;20501;-74
2023/09/06 10:51:03;;;;;;;8.40;6.40;;;25.80;92.60;;;;;;4944130;28;20439;-74
2023/09/06 10:53:30;;;;;;;6.67;5.93;;;25.80;92.60;;;;;;4944039;28;20573;-74
2023/09/06 10:55:58;;;;;;;7.07;5.87;;;25.90;92.50;;;;;;4953042;28;20437;-74
2023/09/06 10:58:24;;;;;;;6.27;5.67;;;26.00;92.40;;;;;;4952059;28;20419;-74
2023/09/06 11:01:12;;;;;;;7.43;5.73;;;26.00;92.60;;;;;;4951123;28;20443;-74
2023/09/06 11:03:38;;;;;;;8.37;6.13;;;26.10;92.60;;;;;;4949880;28;20453;-74
2023/09/06 11:06:06;;;;;;;10.23;6.27;;;26.20;92.70;;;;;;4954847;28;20529;-74
2023/09/06 11:08:33;;;;;;;7.50;5.67;;;26.20;92.40;;;;;;4948947;28;20417;-73
2023/09/06 11:11:05;;;;;;;6.53;5.90;;;26.40;92.50;;;;;;4949052;28;20414;-74
2023/09/06 11:13:32;;;;;;;5.80;5.30;;;26.40;92.10;;;;;;4951546;28;20466;-74
2023/09/06 11:15:59;;;;;;;6.47;5.87;;;26.50;92.00;;;;;;4955557;28;20972;-73
2023/09/06 11:18:26;;;;;;;7.00;5.60;;;26.50;92.00;;;;;;4954502;28;20444;-73
2023/09/06 11:20:52;;;;;;;7.07;6.37;;;26.60;91.80;;;;;;4947294;28;20519;-73
2023/09/06 11:23:17;;;;;;;7.40;6.50;;;26.70;91.30;;;;;;4953126;28;20443;-73
2023/09/06 11:25:45;;;;;;;8.43;6.63;;;26.80;91.20;;;;;;4951294;28;20719;-73
2023/09/06 11:28:16;;;;;;;7.17;6.47;;;26.80;91.10;;;;;;4952065;28;20189;-73
2023/09/06 11:30:49;;;;;;;6.67;5.60;;;26.80;91.20;;;;;;4947862;28;20422;-74
2023/09/06 11:33:16;;;;;;;6.07;5.50;;;27.00;91.20;;;;;;4945328;28;20941;-73
2023/09/06 11:35:52;;;;;;;7.63;6.43;;;27.10;91.30;;;;;;4949633;28;20426;-74
2023/09/06 11:38:21;;;;;;;6.93;6.30;;;27.10;91.10;;;;;;4942424;28;20414;-73
2023/09/06 11:40:47;;;;;;;6.17;5.57;;;27.20;91.00;;;;;;4947834;28;20424;-73
2023/09/06 11:43:17;;;;;;;6.70;6.10;;;27.40;90.60;;;;;;4951575;28;20442;-73
2023/09/06 11:45:45;;;;;;;8.17;5.73;;;27.50;90.50;;;;;;4947428;28;20438;-73
2023/09/06 11:48:18;;;;;;;8.60;6.27;;;27.60;90.20;;;;;;4948531;28;20478;-75
2023/09/06 11:50:47;;;;;;;6.73;6.13;;;27.70;90.00;;;;;;4940835;28;20438;-74
2023/09/06 11:53:14;;;;;;;9.00;5.97;;;27.90;89.60;;;;;;4942444;28;20474;-75
2023/09/06 11:55:45;;;;;;;6.90;6.23;;;28.00;89.20;;;;;;4945171;28;20438;-72
2023/09/06 11:58:16;;;;;;;7.23;5.30;;;28.10;88.50;;;;;;4947973;28;20411;-73
2023/09/06 12:00:46;;;;;;;6.40;5.70;;;28.40;88.60;;;;;;4946384;28;20431;-75
2023/09/06 12:03:21;;;;;;;5.90;5.40;;;28.60;88.70;;;;;;4943877;28;20450;-73
2023/09/06 12:05:48;;;;;;;6.43;5.83;;;29.10;87.70;;;;;;4944373;28;21111;-74
2023/09/06 12:08:23;;;;;;;7.37;6.07;;;29.50;85.10;;;;;;4953743;28;20523;-74
2023/09/06 12:10:53;;;;;;;7.73;6.20;;;29.90;84.80;;;;;;4952123;28;20444;-74
2023/09/06 12:13:31;;;;;;;6.10;5.50;;;30.30;83.70;;;;;;4949566;28;20503;-74
2023/09/06 12:15:57;;;;;;;7.40;6.03;;;30.70;81.80;;;;;;4951222;28;20449;-74
2023/09/06 12:18:28;;;;;;;7.27;6.50;;;31.10;80.80;;;;;;4951797;28;20417;-74
2023/09/06 12:20:54;;;;;;;6.33;5.73;;;31.30;79.70;;;;;;4950007;28;20430;-74
2023/09/06 12:23:20;;;;;;;8.67;7.80;;;31.60;78.20;;;;;;4950429;28;20433;-73
2023/09/06 12:25:47;;;;;;;12.80;9.73;;;31.80;75.70;;;;;;4952278;28;20388;-74
2023/09/06 12:28:12;;;;;;;10.23;9.07;;;32.00;75.10;;;;;;4942948;28;20406;-74
2023/09/06 12:30:38;;;;;;;8.53;6.03;;;32.20;74.40;;;;;;4952140;28;20408;-75
2023/09/06 12:33:04;;;;;;;6.70;5.90;;;32.40;72.40;;;;;;4949717;28;20373;-75
2023/09/06 12:35:35;;;;;;;5.97;5.37;;;32.50;71.60;;;;;;4949782;28;20176;-75
2023/09/06 12:38:01;;;;;;;6.70;6.10;;;32.60;70.90;;;;;;4947978;28;20259;-75
2023/09/06 12:40:28;;;;;;;9.07;5.97;;;32.80;69.70;;;;;;4953019;28;20411;-75
2023/09/06 12:42:54;;;;;;;6.23;5.63;;;32.90;69.30;;;;;;4949679;28;21216;-75
2023/09/06 12:45:31;;;;;;;6.40;5.50;;;33.00;68.90;;;;;;4951993;28;20394;-75
2023/09/06 12:48:00;;;;;;;5.57;5.07;;;33.00;68.90;;;;;;4945525;28;20273;-75